Time;durP1;ratioP1;P1;durP2;ratioP2;P2;SDS_P1;SDS_P2;PMS_P1;PMS_P2;Temp;Humidity;BMP_temperature;BMP_pressure;BME280_temperature;BME280_humidity;BME280_pressure;Samples;Min_cycle;Max_cycle;Signal;HPM_P1;HPM_P2
2022/03/23 00:02:12;;;;;;;54.20;28.88;;;;;;;4.32;89.27;103177.19;5094374;28;20523;-78
2022/03/23 00:04:39;;;;;;;47.17;25.15;;;;;;;4.28;88.91;103183.44;5076740;28;20043;-79
2022/03/23 00:07:04;;;;;;;49.25;25.90;;;;;;;4.24;88.31;103185.31;5076047;28;20047;-79
2022/03/23 00:09:30;;;;;;;46.90;26.90;;;;;;;4.21;88.15;103180.09;5094650;28;20036;-79
2022/03/23 00:11:55;;;;;;;45.53;25.85;;;;;;;4.15;88.17;103186.41;5094348;28;20032;-77
2022/03/23 00:14:20;;;;;;;52.63;25.83;;;;;;;4.12;87.72;103175.97;5094144;28;20128;-79
2022/03/23 00:16:46;;;;;;;44.60;25.17;;;;;;;4.08;88.25;103187.47;5094209;28;20104;-76
2022/03/23 00:19:11;;;;;;;43.33;24.55;;;;;;;4.04;88.27;103180.53;5094016;28;20073;-78
2022/03/23 00:21:38;;;;;;;42.55;23.60;;;;;;;4.00;88.64;103182.41;5076484;28;20028;-78
2022/03/23 00:24:05;;;;;;;43.63;25.08;;;;;;;3.95;88.70;103179.00;5076395;28;20066;-78
2022/03/23 00:26:31;;;;;;;47.15;25.50;;;;;;;3.92;89.04;103181.72;5093905;28;20032;-78
2022/03/23 00:28:56;;;;;;;43.38;24.42;;;;;;;3.87;88.98;103176.56;5075332;28;20029;-77
2022/03/23 00:31:22;;;;;;;40.97;23.58;;;;;;;3.83;89.03;103180.19;5093950;28;20090;-78
2022/03/23 00:33:51;;;;;;;44.95;24.85;;;;;;;3.80;88.94;103182.03;5076168;28;20174;-76
2022/03/23 00:36:17;;;;;;;49.83;26.67;;;;;;;3.78;89.10;103181.22;5093542;28;20131;-78
2022/03/23 00:38:43;;;;;;;47.60;26.35;;;;;;;3.75;89.26;103178.63;5094223;28;20040;-78
2022/03/23 00:41:10;;;;;;;48.70;26.63;;;;;;;3.71;89.15;103178.72;5093036;28;20028;-78
2022/03/23 00:43:35;;;;;;;44.47;25.90;;;;;;;3.69;88.87;103175.25;5093450;28;20020;-78
2022/03/23 00:46:01;;;;;;;48.85;26.17;;;;;;;3.67;89.05;103173.56;5093033;28;20035;-78
2022/03/23 00:48:27;;;;;;;50.55;26.95;;;;;;;3.66;88.99;103169.22;5093195;28;20108;-78
2022/03/23 00:50:53;;;;;;;46.00;26.13;;;;;;;3.64;89.28;103169.25;5093195;28;20031;-78
2022/03/23 00:53:18;;;;;;;45.50;25.38;;;;;;;3.64;89.47;103171.00;5075062;28;20032;-79
2022/03/23 00:55:44;;;;;;;51.40;26.52;;;;;;;3.62;89.34;103178.09;5075298;28;20035;-79
2022/03/23 00:58:10;;;;;;;48.08;26.17;;;;;;;3.60;89.15;103166.69;5092956;28;20498;-78
2022/03/23 01:00:36;;;;;;;47.13;25.98;;;;;;;3.59;89.45;103173.75;5093251;28;20476;-78
2022/03/23 01:03:02;;;;;;;47.50;26.60;;;;;;;3.59;89.20;103170.25;5093032;28;20044;-78
2022/03/23 01:05:28;;;;;;;50.28;27.33;;;;;;;3.58;89.32;103165.88;5074617;28;20024;-79
2022/03/23 01:07:54;;;;;;;50.78;28.83;;;;;;;3.59;89.58;103176.38;5092667;28;20039;-75
2022/03/23 01:10:20;;;;;;;49.63;27.20;;;;;;;3.57;89.50;103169.41;5092998;28;20028;-77
2022/03/23 01:12:46;;;;;;;48.95;27.58;;;;;;;3.54;90.19;103162.47;5093342;28;20051;-80
2022/03/23 01:15:14;;;;;;;50.47;27.60;;;;;;;3.50;89.81;103163.44;5092984;28;20028;-79
2022/03/23 01:17:40;;;;;;;47.45;25.65;;;;;;;3.46;89.81;103167.91;5093491;28;20062;-77
2022/03/23 01:20:08;;;;;;;51.80;26.83;;;;;;;3.43;89.75;103167.13;5096277;28;20404;-78
2022/03/23 01:22:35;;;;;;;50.60;26.75;;;;;;;3.39;89.49;103166.31;5094281;28;20035;-78
2022/03/23 01:25:00;;;;;;;46.63;25.42;;;;;;;3.35;89.50;103159.41;5092827;28;20059;-77
2022/03/23 01:27:25;;;;;;;46.95;25.92;;;;;;;3.33;89.81;103162.06;5074681;28;20490;-78
2022/03/23 01:29:52;;;;;;;40.05;24.55;;;;;;;3.29;89.82;103156.91;5074848;28;20032;-78
2022/03/23 01:32:18;;;;;;;44.10;25.40;;;;;;;3.26;89.97;103151.72;5092879;28;20058;-78
2022/03/23 01:34:44;;;;;;;48.92;26.65;;;;;;;3.22;90.31;103157.94;5092778;28;20032;-78
2022/03/23 01:37:09;;;;;;;42.60;24.20;;;;;;;3.18;90.43;103160.66;5074611;28;20036;-78
2022/03/23 01:39:34;;;;;;;44.58;25.55;;;;;;;3.15;90.22;103159.84;5074451;28;20032;-77
2022/03/23 01:42:00;;;;;;;47.63;26.83;;;;;;;3.11;90.22;103159.03;5092715;28;20353;-77
2022/03/23 01:44:26;;;;;;;47.65;26.23;;;;;;;3.09;90.37;103162.59;5092367;28;20036;-78
2022/03/23 01:47:08;;;;;;;51.70;26.20;;;;;;;3.07;90.37;103157.38;5092424;28;20530;-78
2022/03/23 01:49:43;;;;;;;48.90;26.25;;;;;;;3.05;90.41;103153.06;5092973;28;20059;-78
2022/03/23 01:52:12;;;;;;;48.00;26.10;;;;;;;3.03;90.33;103158.38;5093197;28;20028;-78
2022/03/23 01:54:38;;;;;;;47.90;26.98;;;;;;;3.00;90.55;103155.78;5074875;28;20421;-78
2022/03/23 01:57:06;;;;;;;44.55;26.55;;;;;;;2.98;90.85;103150.53;5092565;28;20036;-78
2022/03/23 01:59:33;;;;;;;50.20;25.85;;;;;;;2.97;90.63;103150.56;5092418;28;20028;-78
2022/03/23 02:01:58;;;;;;;44.70;26.42;;;;;;;2.94;91.06;103143.66;5092467;28;20107;-76
2022/03/23 02:04:24;;;;;;;44.15;25.42;;;;;;;2.93;90.93;103157.69;5092306;28;20121;-79
2022/03/23 02:06:50;;;;;;;48.40;26.83;;;;;;;2.91;90.74;103150.72;5074033;28;20047;-79
2022/03/23 02:09:16;;;;;;;49.45;27.15;;;;;;;2.90;90.56;103147.22;5095417;28;20120;-78
2022/03/23 02:11:42;;;;;;;44.15;26.10;;;;;;;2.90;90.72;103149.00;5096957;28;20036;-78
2022/03/23 02:14:09;;;;;;;48.30;26.83;;;;;;;2.88;90.64;103143.78;5096158;28;20035;-79
2022/03/23 02:16:50;;;;;;;53.03;28.77;;;;;;;2.86;90.44;103145.56;5096049;28;20028;-78
2022/03/23 02:19:15;;;;;;;52.53;26.45;;;;;;;2.84;90.46;103147.38;5096657;28;20051;-78
2022/03/23 02:21:44;;;;;;;42.97;26.42;;;;;;;2.83;90.33;103141.22;5096264;28;20532;-78
2022/03/23 02:24:10;;;;;;;46.40;26.60;;;;;;;2.80;90.45;103141.28;5095910;28;20119;-78
2022/03/23 02:26:37;;;;;;;52.80;27.95;;;;;;;2.78;90.52;103142.25;5096596;28;20436;-79
2022/03/23 02:29:04;;;;;;;52.22;26.90;;;;;;;2.75;90.63;103137.91;5095733;28;20391;-77
2022/03/23 02:31:30;;;;;;;47.45;26.98;;;;;;;2.73;90.44;103138.81;5096367;28;20028;-78
2022/03/23 02:33:56;;;;;;;45.78;26.15;;;;;;;2.71;90.48;103141.47;5096085;28;20457;-79
2022/03/23 02:36:22;;;;;;;47.83;27.05;;;;;;;2.68;90.66;103140.69;5096026;28;20036;-79
2022/03/23 02:38:47;;;;;;;49.50;28.02;;;;;;;2.65;90.78;103139.84;5095928;28;20028;-78
2022/03/23 02:41:13;;;;;;;48.42;26.95;;;;;;;2.62;90.85;103134.66;5095741;28;20040;-78
2022/03/23 02:43:39;;;;;;;45.78;26.08;;;;;;;2.62;90.96;103136.41;5096183;28;20388;-79
2022/03/23 02:46:05;;;;;;;52.40;26.52;;;;;;;2.59;90.76;103136.47;5078093;28;20043;-76
2022/03/23 02:48:30;;;;;;;45.70;26.02;;;;;;;2.56;90.82;103133.91;5095866;28;20476;-78
2022/03/23 02:50:56;;;;;;;45.53;26.42;;;;;;;2.54;90.86;103144.47;5096492;28;20027;-78
2022/03/23 03:01:55;;;;;;;47.55;25.92;;;;;;;2.43;90.74;103141.16;5095541;28;20051;-79
2022/03/23 03:04:23;;;;;;;45.95;26.45;;;;;;;2.41;90.59;103138.56;5095626;28;20044;-79
2022/03/23 03:06:49;;;;;;;44.97;26.33;;;;;;;2.38;90.89;103146.50;5077373;28;20047;-79
2022/03/23 03:09:15;;;;;;;43.28;25.50;;;;;;;2.37;90.95;103146.53;5095292;28;20044;-78
2022/03/23 03:11:43;;;;;;;47.72;25.98;;;;;;;2.33;90.78;103145.75;5077290;28;20414;-78
2022/03/23 03:14:08;;;;;;;47.97;27.23;;;;;;;2.31;90.90;103144.91;5095167;28;20047;-78
2022/03/23 03:16:34;;;;;;;46.97;25.80;;;;;;;2.27;90.87;103149.34;5095892;28;20032;-78
2022/03/23 03:18:59;;;;;;;46.45;25.95;;;;;;;2.24;90.90;103144.16;5095923;28;20032;-78
2022/03/23 03:21:25;;;;;;;42.60;25.63;;;;;;;2.22;90.94;103148.56;5080165;28;20050;-79
2022/03/23 03:23:50;;;;;;;51.35;27.23;;;;;;;2.19;91.18;103146.00;5077113;28;20062;-79
2022/03/23 03:26:17;;;;;;;44.22;26.20;;;;;;;2.18;91.30;103153.91;5095058;28;20451;-79
2022/03/23 03:28:43;;;;;;;45.50;26.00;;;;;;;2.16;91.01;103150.44;5094828;28;20036;-79
2022/03/23 03:31:10;;;;;;;58.35;29.35;;;;;;;2.16;91.63;103148.66;5094998;28;20059;-76
2022/03/23 03:33:37;;;;;;;51.15;27.05;;;;;;;2.15;92.24;103146.97;5095116;28;20399;-78
2022/03/23 03:36:04;;;;;;;46.08;25.40;;;;;;;2.15;92.21;103152.22;5094958;28;20024;-78
2022/03/23 03:38:30;;;;;;;45.25;25.17;;;;;;;2.14;92.04;103149.63;5094717;28;20053;-78
2022/03/23 03:40:57;;;;;;;47.50;26.10;;;;;;;2.09;92.03;103149.66;5094810;28;20043;-78
2022/03/23 03:43:24;;;;;;;46.03;25.55;;;;;;;2.05;91.83;103154.13;5094646;28;20057;-78
2022/03/23 03:45:50;;;;;;;49.15;26.10;;;;;;;2.02;92.50;103159.44;5094721;28;20036;-78
2022/03/23 03:48:17;;;;;;;43.97;24.27;;;;;;;1.99;92.48;103156.00;5077108;28;20193;-78
2022/03/23 03:50:43;;;;;;;43.47;24.38;;;;;;;1.95;92.33;103157.81;5095117;28;20047;-78
2022/03/23 03:53:09;;;;;;;41.47;23.20;;;;;;;1.90;92.29;103160.50;5094548;28;20114;-79
2022/03/23 03:55:36;;;;;;;43.28;25.65;;;;;;;1.87;92.15;103157.94;5094472;28;20478;-78
2022/03/23 03:58:03;;;;;;;46.30;24.13;;;;;;;1.84;91.87;103162.38;5076210;28;20036;-78
2022/03/23 04:00:30;;;;;;;41.83;24.38;;;;;;;1.82;91.87;103166.78;5094419;28;20028;-78
2022/03/23 04:02:55;;;;;;;41.90;24.10;;;;;;;1.79;91.56;103164.19;5094445;28;20034;-78
2022/03/23 04:05:20;;;;;;;44.33;24.58;;;;;;;1.75;91.49;103164.25;5093704;28;20035;-78
2022/03/23 04:07:46;;;;;;;49.30;25.52;;;;;;;1.71;91.46;103165.19;5094261;28;20120;-77
2022/03/23 04:10:11;;;;;;;42.03;24.73;;;;;;;1.69;91.48;103168.75;5094518;28;20456;-78
2022/03/23 04:12:38;;;;;;;47.42;25.45;;;;;;;1.66;91.67;103169.66;5094291;28;20047;-78
2022/03/23 04:15:04;;;;;;;45.22;24.20;;;;;;;1.64;91.97;103171.41;5094107;28;20031;-78
2022/03/23 04:17:29;;;;;;;41.20;24.90;;;;;;;1.62;92.24;103170.59;5094234;28;20464;-78
2022/03/23 04:19:55;;;;;;;46.00;25.00;;;;;;;1.62;92.23;103169.72;5094162;28;20388;-78
2022/03/23 04:22:21;;;;;;;54.40;27.10;;;;;;;1.58;92.20;103164.53;5094411;28;20374;-77
2022/03/23 04:24:47;;;;;;;52.63;27.77;;;;;;;1.56;92.16;103166.28;5093742;28;20071;-78
2022/03/23 04:27:13;;;;;;;46.60;25.35;;;;;;;1.53;92.26;103166.34;5094166;28;20488;-77
2022/03/23 04:29:40;;;;;;;40.35;24.27;;;;;;;1.51;92.20;103167.28;5093474;28;20121;-78
2022/03/23 04:32:05;;;;;;;42.95;24.80;;;;;;;1.50;92.21;103168.16;5093198;28;20038;-78
2022/03/23 04:34:31;;;;;;;45.08;24.77;;;;;;;1.48;92.43;103175.16;5093677;28;20028;-79
2022/03/23 04:36:56;;;;;;;46.10;24.50;;;;;;;1.46;92.51;103169.94;5093320;28;20388;-77
2022/03/23 04:39:21;;;;;;;43.00;25.85;;;;;;;1.45;92.33;103180.47;5093629;28;20097;-76
2022/03/23 04:41:47;;;;;;;51.25;26.25;;;;;;;1.44;92.47;103174.38;5075245;28;20046;-77
2022/03/23 04:44:12;;;;;;;44.80;24.15;;;;;;;1.40;92.32;103178.81;5093544;28;20034;-77
2022/03/23 04:46:38;;;;;;;43.03;24.13;;;;;;;1.39;92.54;103181.44;5093178;28;20397;-78
2022/03/23 04:49:03;;;;;;;43.72;24.20;;;;;;;1.36;92.44;103178.88;5093618;28;20032;-78
2022/03/23 04:51:30;;;;;;;45.33;25.15;;;;;;;1.36;92.34;103189.38;5093498;28;20035;-77
2022/03/23 04:53:56;;;;;;;51.70;26.98;;;;;;;1.34;92.42;103183.25;5075879;28;20032;-78
2022/03/23 04:56:22;;;;;;;43.92;24.20;;;;;;;1.31;92.42;103181.53;5093625;28;20437;-77
2022/03/23 04:58:47;;;;;;;44.53;25.20;;;;;;;1.30;92.38;103182.44;5093034;28;20404;-78
2022/03/23 05:01:13;;;;;;;51.67;26.48;;;;;;;1.28;92.23;103185.97;5092782;28;20487;-78
2022/03/23 05:03:38;;;;;;;48.42;25.52;;;;;;;1.26;92.19;103196.47;5093032;28;20425;-79
2022/03/23 05:06:03;;;;;;;44.90;26.42;;;;;;;1.25;91.98;103186.00;5092897;28;20373;-78
2022/03/23 05:08:29;;;;;;;45.90;25.73;;;;;;;1.26;92.15;103193.00;5093474;28;20480;-78
2022/03/23 05:10:54;;;;;;;52.50;27.45;;;;;;;1.25;92.38;103197.34;5093286;28;20423;-77
2022/03/23 05:13:20;;;;;;;46.22;25.33;;;;;;;1.23;92.60;103209.63;5075820;28;20032;-76
2022/03/23 05:15:45;;;;;;;53.22;27.77;;;;;;;1.21;92.78;103201.78;5093797;28;20138;-77
2022/03/23 05:18:11;;;;;;;50.45;27.20;;;;;;;1.20;92.98;103197.44;5093529;28;20028;-77
2022/03/23 05:20:36;;;;;;;45.28;24.90;;;;;;;1.19;92.84;103206.16;5094862;28;20388;-77
2022/03/23 05:23:02;;;;;;;47.00;26.70;;;;;;;1.17;92.79;103202.72;5094582;28;20097;-78
2022/03/23 05:25:27;;;;;;;49.55;26.08;;;;;;;1.15;92.77;103204.50;5093290;28;20044;-77
2022/03/23 05:27:53;;;;;;;47.03;25.52;;;;;;;1.13;92.83;103200.16;5093277;28;20107;-78
2022/03/23 05:30:19;;;;;;;48.03;25.00;;;;;;;1.10;92.98;103202.81;5092654;28;20529;-77
2022/03/23 05:32:44;;;;;;;46.47;26.05;;;;;;;1.07;92.97;103203.72;5092850;28;20065;-78
2022/03/23 05:35:11;;;;;;;43.75;25.10;;;;;;;1.05;93.12;103200.25;5093470;28;20036;-78
2022/03/23 05:37:37;;;;;;;45.15;25.23;;;;;;;1.02;93.06;103198.53;5092961;28;20043;-78
2022/03/23 05:40:03;;;;;;;49.30;25.88;;;;;;;1.00;92.98;103202.94;5092742;28;20578;-78
2022/03/23 05:42:29;;;;;;;48.70;25.90;;;;;;;0.99;92.64;103195.94;5094073;28;20115;-77
2022/03/23 05:44:55;;;;;;;51.03;28.08;;;;;;;0.98;92.66;103196.84;5096962;28;20524;-78
2022/03/23 05:47:21;;;;;;;43.90;25.63;;;;;;;0.98;92.79;103202.06;5097595;28;20043;-78
2022/03/23 05:49:47;;;;;;;49.17;26.30;;;;;;;0.99;92.80;103201.19;5096830;28;20081;-78
2022/03/23 05:52:12;;;;;;;47.38;26.73;;;;;;;1.00;92.98;103208.19;5097192;28;20032;-78
2022/03/23 05:54:38;;;;;;;47.70;26.70;;;;;;;1.02;93.37;103200.31;5096550;28;20494;-78
2022/03/23 05:57:04;;;;;;;49.65;27.83;;;;;;;1.04;93.37;103207.25;5096855;28;20036;-77
2022/03/23 05:59:30;;;;;;;56.47;27.23;;;;;;;1.07;93.95;103210.72;5096578;28;20027;-77
2022/03/23 06:01:58;;;;;;;54.80;30.88;;;;;;;1.11;94.22;103209.81;5079072;28;20449;-79
2022/03/23 06:04:23;;;;;;;58.25;30.90;;;;;;;1.15;94.56;103209.75;5096513;28;20032;-78
2022/03/23 06:06:49;;;;;;;57.53;31.63;;;;;;;1.18;94.81;103212.31;5074893;28;20045;-78
2022/03/23 06:09:14;;;;;;;52.40;29.25;;;;;;;1.21;95.06;103208.81;5076206;28;20135;-79
2022/03/23 06:11:40;;;;;;;51.15;28.45;;;;;;;1.25;95.19;103207.00;5076511;28;20115;-79
2022/03/23 06:14:05;;;;;;;46.40;26.67;;;;;;;1.31;95.62;103214.78;5076966;28;20032;-79
2022/03/23 06:16:31;;;;;;;45.70;26.90;;;;;;;1.36;95.60;103212.97;5074901;28;20072;-79
2022/03/23 06:18:59;;;;;;;46.53;26.55;;;;;;;1.39;95.89;103211.16;5076431;28;20095;-79
2022/03/23 06:21:24;;;;;;;47.67;29.00;;;;;;;1.45;95.81;103217.19;5075793;28;20488;-78
2022/03/23 06:23:49;;;;;;;56.65;31.58;;;;;;;1.51;96.19;103214.50;5058295;28;20029;-77
2022/03/23 06:26:15;;;;;;;69.13;36.42;;;;;;;1.57;96.29;103219.66;5075964;28;20440;-79
2022/03/23 06:28:40;;;;;;;74.60;38.53;;;;;;;1.64;96.66;103213.41;5075909;28;20071;-79
2022/03/23 06:31:06;;;;;;;69.00;37.50;;;;;;;1.75;96.98;103226.41;5058027;28;20033;-77
2022/03/23 06:33:32;;;;;;;70.00;35.30;;;;;;;1.83;97.24;103214.00;5075808;28;20039;-77
2022/03/23 06:35:57;;;;;;;58.97;32.28;;;;;;;1.94;97.45;103217.34;5075786;28;20377;-80
2022/03/23 06:38:23;;;;;;;73.07;35.00;;;;;;;2.05;98.06;103219.78;5075654;28;20032;-80
2022/03/23 06:40:48;;;;;;;60.83;32.70;;;;;;;2.17;98.34;103210.84;5075560;28;20036;-78
2022/03/23 06:43:14;;;;;;;65.50;32.83;;;;;;;2.27;98.66;103212.41;5075613;28;20039;-78
2022/03/23 06:45:42;;;;;;;64.05;33.10;;;;;;;2.40;99.09;103217.44;5075277;28;20028;-78
2022/03/23 06:48:07;;;;;;;64.40;33.25;;;;;;;2.53;99.37;103220.72;5075597;28;20043;-78
2022/03/23 06:50:34;;;;;;;63.13;31.95;;;;;;;2.67;99.47;103221.31;5075494;28;20040;-78
2022/03/23 06:52:59;;;;;;;58.63;30.27;;;;;;;2.80;99.90;103222.78;5075726;28;20090;-81
2022/03/23 06:55:25;;;;;;;58.00;29.88;;;;;;;2.95;99.94;103221.63;5075414;28;20040;-80
2022/03/23 06:57:50;;;;;;;61.78;31.42;;;;;;;3.10;100.00;103223.06;5057498;28;20040;-77
2022/03/23 07:00:16;;;;;;;55.55;30.60;;;;;;;3.27;100.00;103221.84;5075416;28;20031;-80
2022/03/23 07:02:47;;;;;;;62.17;32.97;;;;;;;3.43;100.00;103217.13;5075234;28;20381;-79
2022/03/23 07:05:14;;;;;;;60.40;33.58;;;;;;;3.62;100.00;103231.59;5075690;28;20028;-80
2022/03/23 07:09:31;;;;;;;59.38;32.80;;;;;;;3.82;100.00;103222.34;5075918;28;20051;-79
2022/03/23 07:10:25;;;;;;;60.58;32.55;;;;;;;4.04;100.00;103227.97;5060022;28;20040;-79
2022/03/23 07:12:50;;;;;;;58.42;31.80;;;;;;;4.23;100.00;103234.50;5075099;28;20044;-81
2022/03/23 07:15:16;;;;;;;55.25;30.88;;;;;;;4.44;100.00;103232.22;5057798;28;20127;-78
2022/03/23 07:17:41;;;;;;;59.67;32.80;;;;;;;4.64;100.00;103234.31;5058544;28;20519;-79
2022/03/23 07:20:07;;;;;;;60.22;32.83;;;;;;;4.85;100.00;103243.44;5074949;28;20120;-80
2022/03/23 07:22:32;;;;;;;57.55;30.63;;;;;;;5.06;100.00;103243.69;5076502;28;20043;-78
2022/03/23 07:24:59;;;;;;;57.97;31.60;;;;;;;5.24;100.00;103248.47;5076297;28;20028;-80
2022/03/23 07:27:24;;;;;;;53.40;30.75;;;;;;;5.45;100.00;103243.47;5074970;28;20537;-79
2022/03/23 07:29:50;;;;;;;54.88;30.67;;;;;;;5.65;100.00;103245.47;5080036;28;20056;-82
2022/03/23 07:32:15;;;;;;;56.88;30.20;;;;;;;5.83;100.00;103244.88;5056686;28;20035;-80
2022/03/23 07:34:41;;;;;;;46.85;28.25;;;;;;;6.06;98.36;103245.97;5075259;28;20040;-80
2022/03/23 07:37:06;;;;;;;49.35;28.42;;;;;;;6.28;95.62;103246.06;5074280;28;20037;-79
2022/03/23 07:39:31;;;;;;;48.13;28.08;;;;;;;6.50;91.95;103250.63;5040777;28;20039;-81
2022/03/23 07:41:59;;;;;;;51.75;27.08;;;;;;;6.80;91.37;103253.13;5074463;28;20055;-79
2022/03/23 07:44:24;;;;;;;53.38;27.17;;;;;;;7.01;85.84;103256.75;5074479;28;20075;-80
2022/03/23 07:46:50;;;;;;;47.45;27.25;;;;;;;7.27;83.10;103263.75;5074203;28;20032;-79
2022/03/23 07:49:15;;;;;;;52.33;28.90;;;;;;;7.47;82.05;103259.47;5074290;28;20467;-78
2022/03/23 07:51:41;;;;;;;46.13;27.73;;;;;;;7.68;81.77;103255.09;5074338;28;20032;-79
2022/03/23 07:54:07;;;;;;;48.13;27.33;;;;;;;7.89;79.63;103266.63;5074415;28;20115;-78
2022/03/23 07:56:33;;;;;;;46.85;26.95;;;;;;;8.11;77.90;103271.91;5074277;28;20330;-77
2022/03/23 07:58:58;;;;;;;47.63;26.88;;;;;;;8.35;76.99;103272.66;5074463;28;20174;-78
2022/03/23 08:01:24;;;;;;;51.33;27.30;;;;;;;8.60;76.23;103271.66;5074246;28;20024;-80
2022/03/23 08:03:49;;;;;;;45.85;26.80;;;;;;;8.94;73.94;103276.34;5074221;28;20036;-79
2022/03/23 08:06:15;;;;;;;48.30;27.08;;;;;;;9.47;72.71;103279.25;5072861;28;20045;-76
2022/03/23 08:08:40;;;;;;;42.47;27.65;;;;;;;10.03;70.62;103273.00;5074124;28;20029;-77
2022/03/23 08:11:06;;;;;;;46.55;27.52;;;;;;;10.47;68.46;103279.69;5073605;28;20506;-78
2022/03/23 08:13:31;;;;;;;46.35;25.95;;;;;;;10.87;66.73;103277.63;5073734;28;20393;-78
2022/03/23 08:15:56;;;;;;;38.70;26.88;;;;;;;11.27;66.07;103278.13;5074141;28;20454;-79
2022/03/23 08:18:22;;;;;;;45.95;25.73;;;;;;;11.46;65.15;103279.75;5073503;28;20037;-78
2022/03/23 08:20:49;;;;;;;44.20;26.65;;;;;;;11.61;65.18;103278.06;5073602;28;20381;-78
2022/03/23 08:23:15;;;;;;;42.67;26.83;;;;;;;11.53;63.57;103283.81;5073273;28;20431;-78
2022/03/23 08:25:42;;;;;;;48.03;27.73;;;;;;;11.62;65.12;103277.97;5073622;28;20119;-80
2022/03/23 08:28:09;;;;;;;38.33;25.38;;;;;;;11.69;62.56;103269.59;5073387;28;20033;-79
2022/03/23 08:30:35;;;;;;;42.92;25.30;;;;;;;11.68;62.33;103268.75;5055540;28;20407;-79
2022/03/23 08:33:02;;;;;;;43.28;25.50;;;;;;;11.69;59.60;103273.16;5073101;28;20103;-78
2022/03/23 08:35:28;;;;;;;37.53;24.30;;;;;;;11.83;59.17;103275.88;5072042;28;20036;-80
2022/03/23 08:37:54;;;;;;;40.60;23.45;;;;;;;12.05;58.11;103277.34;5073365;28;20025;-79
2022/03/23 08:40:19;;;;;;;39.50;24.95;;;;;;;12.21;57.36;103271.09;5073188;28;20054;-80
2022/03/23 08:42:45;;;;;;;43.45;25.30;;;;;;;12.40;55.52;103265.53;5073848;28;20369;-79
2022/03/23 08:45:11;;;;;;;37.67;25.00;;;;;;;12.99;56.39;103269.03;5073292;28;20119;-78
2022/03/23 08:47:38;;;;;;;39.13;24.98;;;;;;;13.56;54.09;103269.94;5073245;28;20107;-79
2022/03/23 08:50:08;;;;;;;51.67;25.38;;;;;;;14.15;50.95;103266.09;5073406;28;20110;-80
2022/03/23 08:52:34;;;;;;;37.55;23.60;;;;;;;14.89;48.67;103261.03;5073606;28;20032;-78
2022/03/23 08:55:00;;;;;;;41.47;23.98;;;;;;;15.58;46.53;103265.94;5073659;28;20362;-79
2022/03/23 08:57:26;;;;;;;36.70;23.92;;;;;;;16.08;45.01;103269.38;5073220;28;20025;-76
2022/03/23 08:59:51;;;;;;;37.88;24.27;;;;;;;16.54;43.07;103267.66;5071530;28;20031;-78
2022/03/23 09:02:17;;;;;;;34.85;22.63;;;;;;;16.38;41.83;103265.31;5071682;28;20032;-79
2022/03/23 09:04:43;;;;;;;35.55;23.60;;;;;;;16.84;43.16;103267.09;5072814;28;20369;-77
2022/03/23 09:07:08;;;;;;;39.33;23.65;;;;;;;17.56;40.39;103273.06;5088389;28;20040;-79
2022/03/23 09:09:33;;;;;;;35.72;23.23;;;;;;;18.68;37.71;103265.44;5092918;28;20454;-79
2022/03/23 09:11:59;;;;;;;35.97;23.25;;;;;;;19.70;36.40;103265.31;5075314;28;20081;-78
2022/03/23 09:14:24;;;;;;;33.35;21.90;;;;;;;20.51;33.02;103266.00;5092960;28;20495;-80
2022/03/23 09:16:49;;;;;;;36.45;22.13;;;;;;;21.18;32.56;103265.94;5074670;28;20373;-79
2022/03/23 09:19:19;;;;;;;29.80;22.65;;;;;;;22.06;30.91;103265.31;5092755;28;20068;-81
2022/03/23 09:21:46;;;;;;;36.78;22.13;;;;;;;22.81;29.82;103268.41;5075327;28;20391;-79
2022/03/23 09:24:12;;;;;;;34.75;23.75;;;;;;;22.79;30.61;103267.69;5092815;28;20100;-81
2022/03/23 09:26:39;;;;;;;29.45;21.95;;;;;;;22.78;28.70;103267.84;5093572;28;20472;-80
2022/03/23 09:29:05;;;;;;;32.78;22.02;;;;;;;22.28;28.42;103263.97;5093605;28;20482;-78
2022/03/23 09:31:30;;;;;;;35.90;22.35;;;;;;;23.04;27.97;103257.81;5093012;28;20036;-80
2022/03/23 09:33:55;;;;;;;36.60;21.85;;;;;;;23.16;27.62;103257.53;5092922;28;20131;-80
2022/03/23 09:39:10;;;;;;;32.55;21.13;;;;;;;22.74;27.07;103264.63;5054335;28;20041;-78
2022/03/23 09:41:35;;;;;;;31.38;21.42;;;;;;;22.92;28.10;103269.97;5093281;28;20548;-78
2022/03/23 09:44:02;;;;;;;31.17;21.38;;;;;;;23.44;26.39;103265.41;5092499;28;20050;-78
2022/03/23 09:46:28;;;;;;;31.00;21.17;;;;;;;23.63;26.37;103259.66;5092550;28;20035;-79
2022/03/23 09:48:53;;;;;;;27.33;20.23;;;;;;;23.54;25.52;103260.69;5092966;28;20390;-80
2022/03/23 09:51:20;;;;;;;27.27;21.08;;;;;;;22.43;26.53;103258.84;5092463;28;20093;-78
2022/03/23 09:53:46;;;;;;;28.60;21.10;;;;;;;23.27;26.34;103264.53;5092532;28;20032;-77
2022/03/23 09:56:13;;;;;;;29.05;20.02;;;;;;;23.14;26.11;103262.28;5092600;28;20035;-80
2022/03/23 09:58:41;;;;;;;29.27;21.63;;;;;;;22.78;24.60;103259.72;5092684;28;20066;-80
2022/03/23 10:01:34;;;;;;;26.90;20.60;;;;;;;22.96;26.49;103265.06;5092082;28;20084;-81
2022/03/23 10:04:12;;;;;;;28.52;20.23;;;;;;;23.89;24.93;103261.44;5092627;28;20031;-80
2022/03/23 10:07:08;;;;;;;30.70;21.65;;;;;;;23.59;24.07;103258.34;5091924;28;20060;-77
2022/03/23 10:09:52;;;;;;;34.72;21.13;;;;;;;23.09;24.53;103256.47;5092094;28;20036;-79
2022/03/23 10:13:11;;;;;;;33.55;21.75;;;;;;;23.47;24.47;103260.50;5074297;28;20043;-78
2022/03/23 10:16:22;;;;;;;33.75;22.17;;;;;;;23.72;25.35;103264.13;5091987;28;20102;-75
2022/03/23 10:18:57;;;;;;;31.48;21.65;;;;;;;23.80;25.11;103268.72;5066498;28;20127;-79
2022/03/23 10:21:25;;;;;;;34.80;22.55;;;;;;;24.15;23.84;103260.41;5093421;28;20048;-81
2022/03/23 10:24:14;;;;;;;35.45;22.05;;;;;;;24.07;25.35;103258.56;5092734;28;20039;-80
2022/03/23 10:26:42;;;;;;;34.88;22.42;;;;;;;24.24;23.84;103268.41;5092307;28;20080;-79
2022/03/23 10:29:22;;;;;;;28.88;22.02;;;;;;;24.51;23.89;103255.41;5093029;28;20040;-80
2022/03/23 10:32:00;;;;;;;31.58;23.00;;;;;;;24.21;23.85;103257.84;5096204;28;20063;-79
2022/03/23 10:34:36;;;;;;;33.88;23.95;;;;;;;24.62;23.46;103251.53;5096763;28;20035;-80
2022/03/23 10:37:01;;;;;;;32.00;22.13;;;;;;;24.92;22.59;103257.19;5096572;28;20047;-80
2022/03/23 10:39:30;;;;;;;29.55;23.45;;;;;;;24.65;23.11;103253.88;5095697;28;20388;-75
2022/03/23 10:41:57;;;;;;;33.45;25.17;;;;;;;24.78;22.78;103253.31;5096546;28;20035;-81
2022/03/23 10:44:23;;;;;;;32.88;23.52;;;;;;;24.98;22.83;103260.03;5077786;28;20036;-81
2022/03/23 10:46:48;;;;;;;32.28;23.60;;;;;;;24.96;23.47;103255.78;5095854;28;20532;-81
2022/03/23 10:49:15;;;;;;;33.58;23.63;;;;;;;24.35;24.28;103258.16;5096205;28;20032;-81
2022/03/23 10:51:42;;;;;;;30.70;23.67;;;;;;;25.08;23.25;103258.97;5096146;28;20024;-82
2022/03/23 10:54:18;;;;;;;34.55;23.75;;;;;;;24.75;24.96;103250.94;5095818;28;20115;-84
2022/03/23 10:56:44;;;;;;;34.80;23.20;;;;;;;24.61;24.19;103250.66;5095283;28;20040;-81
2022/03/23 10:59:15;;;;;;;34.70;23.45;;;;;;;25.14;22.36;103250.97;5095762;28;20031;-81
2022/03/23 11:01:59;;;;;;;33.83;24.15;;;;;;;24.96;22.77;103245.78;5095549;28;20046;-77
2022/03/23 11:04:44;;;;;;;38.33;24.15;;;;;;;25.55;21.06;103249.88;5095333;28;20365;-80
2022/03/23 11:07:30;;;;;;;30.85;23.20;;;;;;;25.68;22.45;103255.56;5095525;28;20151;-80
2022/03/23 11:15:48;;;;;;;31.60;23.15;;;;;;;26.16;20.28;103252.66;5095856;28;20047;-80
2022/03/23 11:18:16;;;;;;;36.80;24.98;;;;;;;25.63;20.29;103248.97;5095393;28;20040;-81
2022/03/23 11:20:49;;;;;;;31.77;24.80;;;;;;;25.88;20.97;103246.91;5095295;28;20036;-80
2022/03/23 11:23:23;;;;;;;35.03;24.35;;;;;;;25.46;21.21;103248.25;5095037;28;20476;-80
2022/03/23 11:25:51;;;;;;;32.88;23.92;;;;;;;25.51;19.64;103254.00;5077843;28;20479;-77
2022/03/23 11:28:17;;;;;;;47.38;25.10;;;;;;;25.64;19.92;103251.50;5095004;28;20535;-77
2022/03/23 11:30:43;;;;;;;45.35;24.80;;;;;;;25.87;19.38;103256.97;5095036;28;20063;-75
2022/03/23 11:33:16;;;;;;;37.17;24.98;;;;;;;25.80;19.41;103250.53;5095049;28;20028;-79